createdAt,value
2017-01-11T00:00:52.368Z,36.87
2017-01-11T00:01:52.342Z,36.02
2017-01-11T00:02:52.324Z,34.98
2017-01-11T00:03:52.299Z,35.17
2017-01-11T00:04:52.281Z,34.59
2017-01-11T00:05:52.259Z,34.98
2017-01-11T00:06:52.241Z,34.98
2017-01-11T00:07:52.243Z,35.07
2017-01-11T00:08:52.596Z,33.94
2017-01-11T00:09:52.182Z,34.59
2017-01-11T00:10:52.165Z,34.41
2017-01-11T00:11:52.138Z,34.22
2017-01-11T00:12:52.120Z,33.84
2017-01-11T00:13:52.100Z,34.5
2017-01-11T00:14:52.081Z,34.12
2017-01-11T00:15:52.061Z,33.84
2017-01-11T00:16:52.059Z,33.75
2017-01-11T00:17:52.022Z,34.41
2017-01-11T00:18:51.994Z,34.78
2017-01-11T00:19:51.979Z,34.31
2017-01-11T00:20:51.959Z,34.5
2017-01-11T00:21:51.938Z,33.84
2017-01-11T00:22:51.919Z,33.75
2017-01-11T00:23:51.898Z,33.46
2017-01-11T00:24:51.874Z,34.31
2017-01-11T00:25:51.920Z,34.88
2017-01-11T00:26:51.836Z,34.98
2017-01-11T00:27:51.820Z,34.59
2017-01-11T00:28:51.798Z,34.88
2017-01-11T00:29:51.773Z,35.17
2017-01-11T00:30:51.754Z,35.17
2017-01-11T00:31:51.739Z,33.84
2017-01-11T00:32:51.716Z,33.75
2017-01-11T00:33:51.695Z,34.22
2017-01-11T00:34:51.674Z,33.94
2017-01-11T00:35:51.655Z,34.31
2017-01-11T00:36:51.632Z,34.31
2017-01-11T00:37:51.612Z,34.03
2017-01-11T00:38:51.594Z,34.03
2017-01-11T00:39:51.573Z,34.03
2017-01-11T00:40:51.556Z,34.03
2017-01-11T00:41:51.531Z,34.22
2017-01-11T00:42:51.521Z,33.75
2017-01-11T00:43:51.493Z,34.5
2017-01-11T00:44:51.471Z,33.94
2017-01-11T00:45:51.459Z,33.56
2017-01-11T00:46:51.434Z,32.79
2017-01-11T00:47:51.414Z,33.17
2017-01-11T00:48:51.393Z,33.37
2017-01-11T00:49:51.374Z,32.79
2017-01-11T00:50:51.355Z,32.42
2017-01-11T00:51:51.731Z,32.14
2017-01-11T00:52:51.311Z,32.04
2017-01-11T00:53:51.289Z,31.75
2017-01-11T00:54:51.270Z,31.75
2017-01-11T00:55:51.258Z,31.18
2017-01-11T00:56:51.229Z,30.8
2017-01-11T00:57:51.212Z,30.14
2017-01-11T00:58:51.189Z,30.14
2017-01-11T00:59:51.389Z,30.05
2017-01-11T01:00:51.152Z,29.86
2017-01-11T01:01:51.132Z,29.95
2017-01-11T01:02:51.110Z,29.38
2017-01-11T01:03:51.089Z,28.91
2017-01-11T01:04:51.075Z,29.1
2017-01-11T01:05:51.048Z,28.91
2017-01-11T01:06:51.028Z,29.19
2017-01-11T01:07:51.009Z,28.91
2017-01-11T01:08:50.988Z,29
2017-01-11T01:09:50.968Z,29.1
2017-01-11T01:10:50.948Z,28.91
2017-01-11T01:11:50.981Z,28.06
2017-01-11T01:12:50.916Z,28.15
2017-01-11T01:13:50.884Z,27.96
2017-01-11T01:14:50.869Z,27.68
2017-01-11T01:15:50.849Z,26.73
2017-01-11T01:16:50.825Z,26.92
2017-01-11T01:17:50.806Z,26.16
2017-01-11T01:18:50.790Z,25.88
2017-01-11T01:19:50.764Z,25.49
2017-01-11T01:20:50.751Z,25.21
2017-01-11T01:21:50.723Z,24.36
2017-01-11T01:22:50.704Z,24.27
2017-01-11T01:23:50.685Z,23.98
2017-01-11T01:24:50.671Z,23.5
2017-01-11T01:25:50.644Z,23.32
2017-01-11T01:26:50.625Z,23.22
2017-01-11T01:27:50.611Z,23.22
2017-01-11T01:28:50.580Z,22.85
2017-01-11T01:29:50.601Z,22.65
2017-01-11T01:30:50.541Z,22.08
2017-01-11T01:31:50.530Z,22.37
2017-01-11T01:32:50.501Z,22.08
2017-01-11T01:33:50.553Z,22.27
2017-01-11T01:34:50.462Z,22.08
2017-01-11T01:35:50.438Z,22.18
2017-01-11T01:36:50.423Z,22.08
2017-01-11T01:37:50.401Z,21.99
2017-01-11T01:38:50.475Z,21.99
2017-01-11T01:39:50.360Z,22.08
2017-01-11T01:40:50.335Z,22.08
2017-01-11T01:41:50.319Z,21.8
2017-01-11T01:42:50.353Z,21.99
2017-01-11T01:43:50.276Z,21.8
2017-01-11T01:44:50.258Z,21.8
2017-01-11T01:45:50.244Z,22.27
2017-01-11T01:46:50.220Z,22.27
2017-01-11T01:47:50.194Z,21.99
2017-01-11T01:48:50.179Z,21.99
2017-01-11T01:49:50.155Z,21.89
2017-01-11T01:50:50.134Z,21.42
2017-01-11T01:51:50.117Z,21.51
2017-01-11T01:52:50.095Z,21.04
2017-01-11T01:53:50.072Z,21.23
2017-01-11T01:54:50.053Z,21.14
2017-01-11T01:55:50.028Z,20.09
2017-01-11T01:56:50.411Z,20.19
2017-01-11T01:57:49.988Z,19.24
2017-01-11T01:58:49.969Z,18.96
2017-01-11T01:59:50.345Z,18.77
2017-01-11T02:00:49.931Z,18.58
2017-01-11T02:01:49.905Z,18.29
2017-01-11T02:02:49.889Z,17.82
2017-01-11T02:03:49.868Z,17.82
2017-01-11T02:04:50.238Z,17.44
2017-01-11T02:05:49.823Z,17.44
2017-01-11T02:06:49.800Z,17.44
2017-01-11T02:07:49.786Z,17.54
2017-01-11T02:08:49.768Z,17.44
2017-01-11T02:09:49.744Z,18.01
2017-01-11T02:10:49.736Z,18.2
2017-01-11T02:11:49.697Z,18.39
2017-01-11T02:12:49.678Z,18.2
2017-01-11T02:13:49.661Z,18.96
2017-01-11T02:14:49.636Z,18.96
2017-01-11T02:15:49.616Z,18.67
2017-01-11T02:16:49.609Z,18.39
2017-01-11T02:17:49.578Z,18.48
2017-01-11T02:18:49.556Z,18.67
2017-01-11T02:19:49.541Z,18.77
2017-01-11T02:20:49.515Z,19.34
2017-01-11T02:21:49.497Z,19.24
2017-01-11T02:22:49.474Z,18.96
2017-01-11T02:23:49.452Z,18.77
2017-01-11T02:24:49.430Z,18.67
2017-01-11T02:25:49.411Z,18.77
2017-01-11T02:26:49.391Z,18.58
2017-01-11T02:27:49.370Z,18.48
2017-01-11T02:28:49.356Z,17.72
2017-01-11T02:29:49.726Z,18.2
2017-01-11T02:30:49.315Z,17.72
2017-01-11T02:31:49.288Z,18.96
2017-01-11T02:32:49.267Z,18.2
2017-01-11T02:33:49.247Z,18.48
2017-01-11T02:34:49.225Z,18.48
2017-01-11T02:35:49.203Z,18.67
2017-01-11T02:36:49.190Z,18.29
2017-01-11T02:37:49.165Z,18.58
2017-01-11T02:38:49.142Z,18.29
2017-01-11T02:39:49.123Z,18.48
2017-01-11T02:40:49.101Z,18.77
2017-01-11T02:41:49.083Z,18.96
2017-01-11T02:42:49.063Z,19.15
2017-01-11T02:43:49.045Z,19.24
2017-01-11T02:44:49.026Z,20.09
2017-01-11T02:45:49.000Z,21.8
2017-01-11T02:46:48.981Z,21.8
2017-01-11T02:47:48.961Z,21.89
2017-01-11T02:48:48.943Z,21.99
2017-01-11T02:49:49.324Z,21.89
2017-01-11T02:50:48.899Z,21.7
2017-01-11T02:51:48.883Z,21.89
2017-01-11T02:52:48.856Z,21.33
2017-01-11T02:53:48.836Z,21.33
2017-01-11T02:54:48.814Z,21.23
2017-01-11T02:55:48.795Z,21.42
2017-01-11T02:56:48.778Z,21.61
2017-01-11T02:57:48.754Z,20.95
2017-01-11T02:58:48.738Z,21.04
2017-01-11T02:59:48.917Z,21.99
2017-01-11T03:00:48.696Z,21.33
2017-01-11T03:01:48.675Z,22.28
2017-01-11T03:02:48.657Z,21.42
2017-01-11T03:03:48.632Z,21.51
2017-01-11T03:04:48.614Z,21.43
2017-01-11T03:05:48.592Z,21.42
2017-01-11T03:06:48.572Z,22.08
2017-01-11T03:07:48.555Z,22.19
2017-01-11T03:08:48.531Z,22.19
2017-01-11T03:09:48.514Z,22.18
2017-01-11T03:10:48.487Z,22.37
2017-01-11T03:11:48.470Z,23.24
2017-01-11T03:12:48.458Z,23.33
2017-01-11T03:13:48.428Z,23.14
2017-01-11T03:14:48.409Z,22.95
2017-01-11T03:15:48.388Z,23.43
2017-01-11T03:16:48.371Z,22.85
2017-01-11T03:17:48.351Z,22.28
2017-01-11T03:18:48.331Z,21.89
2017-01-11T03:19:48.305Z,22.28
2017-01-11T03:20:48.287Z,22.28
2017-01-11T03:21:48.264Z,22.09
2017-01-11T03:22:48.245Z,22.19
2017-01-11T03:23:48.232Z,22.76
2017-01-11T03:24:48.207Z,22.38
2017-01-11T03:25:48.193Z,23.04
2017-01-11T03:26:48.164Z,22.57
2017-01-11T03:27:48.149Z,23.71
2017-01-11T03:28:48.125Z,22.95
2017-01-11T03:29:48.107Z,23.14
2017-01-11T03:30:48.086Z,24.18
2017-01-11T03:31:48.065Z,23.61
2017-01-11T03:32:48.047Z,25.13
2017-01-11T03:33:48.021Z,24.18
2017-01-11T03:34:48.000Z,24.37
2017-01-11T03:35:47.983Z,24.08
2017-01-11T03:36:47.961Z,23.8
2017-01-11T03:37:47.942Z,24.08
2017-01-11T03:38:47.921Z,24.56
2017-01-11T03:39:47.905Z,25.6
2017-01-11T03:40:47.879Z,25.23
2017-01-11T03:41:47.861Z,25.23
2017-01-11T03:42:47.841Z,25.6
2017-01-11T03:43:47.820Z,25.7
2017-01-11T03:44:47.798Z,25.13
2017-01-11T03:45:47.780Z,25.79
2017-01-11T03:46:47.761Z,25.89
2017-01-11T03:47:47.741Z,25.98
2017-01-11T03:48:47.719Z,27.31
2017-01-11T03:49:47.701Z,27.12
2017-01-11T03:50:47.677Z,26.75
2017-01-11T03:51:47.658Z,26.84
2017-01-11T03:52:47.638Z,26.65
2017-01-11T03:53:47.616Z,27.22
2017-01-11T03:54:47.598Z,27.4
2017-01-11T03:55:47.574Z,28.07
2017-01-11T03:56:47.557Z,29.3
2017-01-11T03:57:47.534Z,29.59
2017-01-11T03:58:47.516Z,29.02
2017-01-11T03:59:47.494Z,29.21
2017-01-11T04:00:47.477Z,29.11
2017-01-11T04:01:47.458Z,29.78
2017-01-11T04:02:47.435Z,30.25
2017-01-11T04:03:47.412Z,29.87
2017-01-11T04:04:47.407Z,29.02
2017-01-11T04:05:47.372Z,28.74
2017-01-11T04:06:47.357Z,28.92
2017-01-11T04:07:47.333Z,29.21
2017-01-11T04:08:47.378Z,29.21
2017-01-11T04:09:47.294Z,28.55
2017-01-11T04:10:47.272Z,29.02
2017-01-11T04:11:47.256Z,30.16
2017-01-11T04:12:47.233Z,30.35
2017-01-11T04:13:47.213Z,31.2
2017-01-11T04:14:47.197Z,30.35
2017-01-11T04:15:47.171Z,31.01
2017-01-11T04:16:47.151Z,31.68
2017-01-11T04:17:47.129Z,31.68
2017-01-11T04:18:47.114Z,31.77
2017-01-11T04:19:47.093Z,31.87
2017-01-11T04:20:47.073Z,31.87
2017-01-11T04:21:47.048Z,31.01
2017-01-11T04:22:47.029Z,30.63
2017-01-11T04:23:47.016Z,30.06
2017-01-11T04:24:46.991Z,30.16
2017-01-11T04:25:46.969Z,30.35
2017-01-11T04:26:46.951Z,31.2
2017-01-11T04:27:46.927Z,32.43
2017-01-11T04:28:46.909Z,32.43
2017-01-11T04:29:46.890Z,32.71
2017-01-11T04:30:46.897Z,33.1
2017-01-11T04:31:46.848Z,33.67
2017-01-11T04:32:46.824Z,33.1
2017-01-11T04:33:46.805Z,32.71
2017-01-11T04:34:46.790Z,32.81
2017-01-11T04:35:46.769Z,32.71
2017-01-11T04:36:46.743Z,32.34
2017-01-11T04:37:46.723Z,32.34
2017-01-11T04:38:46.705Z,32.24
2017-01-11T04:39:46.689Z,33.67
2017-01-11T04:40:46.681Z,33.19
2017-01-11T04:41:46.649Z,33.86
2017-01-11T04:42:46.633Z,33.29
2017-01-11T04:43:46.603Z,34.05
2017-01-11T04:44:46.583Z,33.76
2017-01-11T04:45:46.559Z,33.86
2017-01-11T04:46:46.540Z,34.14
2017-01-11T04:47:46.524Z,34.05
2017-01-11T04:48:46.502Z,34.52
2017-01-11T04:49:46.480Z,33.95
2017-01-11T04:50:46.464Z,33.57
2017-01-11T04:51:46.441Z,33.57
2017-01-11T04:52:46.423Z,33.86
2017-01-11T04:53:46.399Z,32.71
2017-01-11T04:54:46.386Z,32.43
2017-01-11T04:55:46.362Z,32.15
2017-01-11T04:56:46.339Z,31.96
2017-01-11T04:57:46.318Z,32.62
2017-01-11T04:58:46.301Z,32.62
2017-01-11T04:59:46.683Z,32.34
2017-01-11T05:00:46.257Z,32.24
2017-01-11T05:01:46.630Z,32.34
2017-01-11T05:02:46.267Z,32.34
2017-01-11T05:03:46.198Z,32.43
2017-01-11T05:04:46.179Z,32.43
2017-01-11T05:05:46.158Z,32.34
2017-01-11T05:06:46.137Z,33.19
2017-01-11T05:07:46.320Z,32.81
2017-01-11T05:08:46.096Z,32.62
2017-01-11T05:09:46.075Z,32.24
2017-01-11T05:10:46.061Z,31.87
2017-01-11T05:11:46.037Z,31.77
2017-01-11T05:12:46.017Z,31.96
2017-01-11T05:13:45.994Z,31.87
2017-01-11T05:14:45.981Z,31.2
2017-01-11T05:15:45.955Z,31.2
2017-01-11T05:16:45.934Z,30.82
2017-01-11T05:17:45.915Z,31.1
2017-01-11T05:18:45.893Z,31.87
2017-01-11T05:19:45.871Z,31.48
2017-01-11T05:20:45.852Z,31.77
2017-01-11T05:21:45.835Z,32.62
2017-01-11T05:22:45.811Z,31.39
2017-01-11T05:23:45.790Z,30.25
2017-01-11T05:24:45.770Z,26.93
2017-01-11T05:25:45.748Z,22.95
2017-01-11T05:26:45.729Z,22.19
2017-01-11T05:27:45.710Z,19.15
2017-01-11T05:28:45.688Z,16.03
2017-01-11T05:29:45.681Z,15.08
2017-01-11T05:30:45.650Z,13.65
2017-01-11T05:31:45.628Z,14.03
2017-01-11T05:32:45.610Z,13.46
2017-01-11T05:33:45.587Z,12.89
2017-01-11T05:34:45.568Z,12.04
2017-01-11T05:35:45.547Z,11.56
2017-01-11T05:36:45.526Z,11.37
2017-01-11T05:37:45.509Z,10.33
2017-01-11T05:38:45.494Z,9
2017-01-11T05:39:45.463Z,8.53
2017-01-11T05:40:45.444Z,7.68
2017-01-11T05:41:45.424Z,7.77
2017-01-11T05:42:45.402Z,7.68
2017-01-11T05:43:45.429Z,7.68
2017-01-11T05:44:45.360Z,7.48
2017-01-11T05:45:45.341Z,8.91
2017-01-11T05:46:45.323Z,8.34
2017-01-11T05:47:45.298Z,8.25
2017-01-11T05:48:45.277Z,7.87
2017-01-11T05:49:45.253Z,7.39
2017-01-11T05:50:45.231Z,8.44
2017-01-11T05:51:45.213Z,7.77
2017-01-11T05:52:45.207Z,8.53
2017-01-11T05:53:45.234Z,8.91
2017-01-11T05:54:45.156Z,9.19
2017-01-11T05:55:45.153Z,9.29
2017-01-11T05:56:45.127Z,9.95
2017-01-11T05:57:45.091Z,10.14
2017-01-11T05:58:45.066Z,10.05
2017-01-11T05:59:45.048Z,9.76
2017-01-11T06:00:45.028Z,10.14
2017-01-11T06:01:45.006Z,11.09
2017-01-11T06:02:44.985Z,10.9
2017-01-11T06:03:44.961Z,10.8
2017-01-11T06:04:44.940Z,11.37
2017-01-11T06:05:44.920Z,12.23
2017-01-11T06:06:44.900Z,12.6
2017-01-11T06:07:44.879Z,13.65
2017-01-11T06:08:44.861Z,14.22
2017-01-11T06:09:44.840Z,14.59
2017-01-11T06:10:44.816Z,14.59
2017-01-11T06:11:44.796Z,16.2
2017-01-11T06:12:44.777Z,16.39
2017-01-11T06:13:44.752Z,17.35
2017-01-11T06:14:44.736Z,17.45
2017-01-11T06:15:44.711Z,17.83
2017-01-11T06:16:44.691Z,17.44
2017-01-11T06:17:44.724Z,18.87
2017-01-11T06:18:44.648Z,19.24
2017-01-11T06:19:44.632Z,20.1
2017-01-11T06:20:44.615Z,20.86
2017-01-11T06:21:44.585Z,20.48
2017-01-11T06:22:44.567Z,21.15
2017-01-11T06:23:44.565Z,21.34
2017-01-11T06:24:44.580Z,21.53
2017-01-11T06:25:44.507Z,21.43
2017-01-11T06:26:44.486Z,21.91
2017-01-11T06:27:44.461Z,22.66
2017-01-11T06:28:44.440Z,23.9
2017-01-11T06:29:44.417Z,24.08
2017-01-11T06:30:44.397Z,24.66
2017-01-11T06:31:44.376Z,24.37
2017-01-11T06:32:44.356Z,23.8
2017-01-11T06:33:44.334Z,23.61
2017-01-11T06:34:44.319Z,24.46
2017-01-11T06:35:44.296Z,25.7
2017-01-11T06:36:44.672Z,25.79
2017-01-11T06:37:44.254Z,24.94
2017-01-11T06:38:44.234Z,24.18
2017-01-11T06:39:44.665Z,24.36
2017-01-11T06:40:44.189Z,22.95
2017-01-11T06:41:44.169Z,25.89
2017-01-11T06:42:44.147Z,25.7
2017-01-11T06:43:44.133Z,25.6
2017-01-11T06:44:44.160Z,25.89
2017-01-11T06:45:44.093Z,26.08
2017-01-11T06:46:44.065Z,26.65
2017-01-11T06:47:44.049Z,26.36
2017-01-11T06:48:44.030Z,26.08
2017-01-11T06:49:44.006Z,26.65
2017-01-11T06:50:43.986Z,28.07
2017-01-11T06:51:43.961Z,28.17
2017-01-11T06:52:43.943Z,27.98
2017-01-11T06:53:43.921Z,27.59
2017-01-11T06:54:43.903Z,27.88
2017-01-11T06:55:43.879Z,27.88
2017-01-11T06:56:43.860Z,27.88
2017-01-11T06:57:43.839Z,27.31
2017-01-11T06:58:43.818Z,28.17
2017-01-11T06:59:43.998Z,27.98
2017-01-11T07:00:43.776Z,28.83
2017-01-11T07:01:43.758Z,28.83
2017-01-11T07:02:43.736Z,30.44
2017-01-11T07:03:43.716Z,31.77
2017-01-11T07:04:43.697Z,31.39
2017-01-11T07:05:43.676Z,30.73
2017-01-11T07:06:43.660Z,30.16
2017-01-11T07:07:43.631Z,31.96
2017-01-11T07:08:43.613Z,30.25
2017-01-11T07:09:43.592Z,26.75
2017-01-11T07:10:43.577Z,23.71
2017-01-11T07:11:43.552Z,22.09
2017-01-11T07:12:43.535Z,20.1
2017-01-11T07:13:43.510Z,18.3
2017-01-11T07:14:43.488Z,16.22
2017-01-11T07:15:43.472Z,15.74
2017-01-11T07:16:43.446Z,16.03
2017-01-11T07:17:43.426Z,14.89
2017-01-11T07:18:43.409Z,15.64
2017-01-11T07:19:43.401Z,15.93
2017-01-11T07:20:43.367Z,15.26
2017-01-11T07:21:43.344Z,16.69
2017-01-11T07:22:43.327Z,16.6
2017-01-11T07:23:43.304Z,16.6
2017-01-11T07:24:43.284Z,17.83
2017-01-11T07:25:43.313Z,17.92
2017-01-11T07:26:43.244Z,18.68
2017-01-11T07:27:43.621Z,20.29
2017-01-11T07:28:43.204Z,22
2017-01-11T07:29:43.213Z,23.43
2017-01-11T07:30:43.159Z,23.8
2017-01-11T07:31:43.142Z,24.56
2017-01-11T07:32:43.118Z,26.75
2017-01-11T07:33:43.098Z,26.65
2017-01-11T07:34:43.078Z,26.46
2017-01-11T07:35:43.054Z,27.98
2017-01-11T07:36:43.430Z,27.12
2017-01-11T07:37:43.015Z,27.78
2017-01-11T07:38:42.995Z,28.07
2017-01-11T07:39:42.976Z,27.4
2017-01-11T07:40:42.954Z,27.5
2017-01-11T07:41:43.005Z,29.87
2017-01-11T07:42:42.915Z,29.49
2017-01-11T07:43:42.895Z,29.02
2017-01-11T07:44:42.872Z,28.36
2017-01-11T07:45:42.854Z,30.44
2017-01-11T07:46:42.830Z,30.44
2017-01-11T07:47:42.813Z,31.87
2017-01-11T07:48:42.788Z,32.15
2017-01-11T07:49:42.772Z,31.87
2017-01-11T07:50:42.750Z,30.54
2017-01-11T07:51:42.731Z,31.87
2017-01-11T07:52:42.710Z,34.99
2017-01-11T07:53:42.688Z,37.18
2017-01-11T07:54:42.672Z,38.89
2017-01-11T07:55:42.645Z,41.06
2017-01-11T07:56:42.627Z,41.75
2017-01-11T07:57:42.611Z,44.21
2017-01-11T07:58:42.586Z,46.11
2017-01-11T07:59:42.566Z,45.73
2017-01-11T08:00:42.565Z,47.06
2017-01-11T08:01:42.526Z,50.67
2017-01-11T08:02:42.503Z,53.23
2017-01-11T08:03:42.483Z,52.19
2017-01-11T08:04:42.463Z,53.23
2017-01-11T08:05:42.467Z,54.75
2017-01-11T08:06:42.426Z,55.41
2017-01-11T08:07:42.407Z,58.45
2017-01-11T08:08:42.388Z,56.84
2017-01-11T08:09:42.363Z,56.55
2017-01-11T08:10:42.346Z,54.94
2017-01-11T08:11:42.323Z,54.75
2017-01-11T08:12:42.306Z,54.27
2017-01-11T08:13:42.280Z,56.74
2017-01-11T08:14:42.265Z,60.63
2017-01-11T08:15:42.243Z,60.44
2017-01-11T08:16:42.277Z,63.01
2017-01-11T08:17:42.202Z,61.11
2017-01-11T08:18:42.197Z,59.59
2017-01-11T08:19:42.165Z,62.53
2017-01-11T08:20:42.143Z,61.39
2017-01-11T08:21:42.124Z,58.36
2017-01-11T08:22:42.121Z,61.68
2017-01-11T08:23:42.083Z,56.27
2017-01-11T08:24:42.061Z,60.44
2017-01-11T08:25:42.044Z,57.4
2017-01-11T08:26:42.020Z,61.96
2017-01-11T08:27:42.002Z,62.72
2017-01-11T08:28:41.981Z,64.81
2017-01-11T08:29:41.964Z,62.53
2017-01-11T08:30:41.945Z,62.82
2017-01-11T08:31:41.921Z,63.76
2017-01-11T08:32:41.906Z,65.75
2017-01-11T08:33:41.885Z,67.65
2017-01-11T08:34:42.093Z,63.57
2017-01-11T08:35:41.851Z,65.98
2017-01-11T08:36:41.827Z,64.71
2017-01-11T08:37:41.810Z,65.6
2017-01-11T08:38:41.819Z,65.31
2017-01-11T08:39:41.770Z,67.79
2017-01-11T08:40:41.747Z,69.3
2017-01-11T08:41:41.728Z,70.25
2017-01-11T08:42:41.707Z,67.21
2017-01-11T08:43:41.688Z,69.3
2017-01-11T08:44:41.667Z,69.59
2017-01-11T08:45:41.672Z,68.26
2017-01-11T08:46:41.630Z,67.97
2017-01-11T08:47:41.609Z,69.02
2017-01-11T08:48:41.588Z,65.79
2017-01-11T08:49:41.967Z,66.17
2017-01-11T08:50:41.563Z,63.13
2017-01-11T08:51:41.533Z,70.82
2017-01-11T08:52:41.509Z,69.3
2017-01-11T08:53:41.890Z,69.3
2017-01-11T08:54:41.475Z,65.88
2017-01-11T08:55:41.451Z,66.55
2017-01-11T08:56:41.441Z,65.03
2017-01-11T08:57:41.466Z,60.28
2017-01-11T08:58:41.393Z,49.65
2017-01-11T08:59:41.377Z,44.05
2017-01-11T09:00:41.354Z,41.2
2017-01-11T09:01:41.338Z,40.53
2017-01-11T09:02:41.317Z,39.97
2017-01-11T09:03:41.297Z,39.97
2017-01-11T09:04:41.279Z,37.97
2017-01-11T09:05:41.259Z,37.88
2017-01-11T09:06:41.236Z,40.7
2017-01-11T09:07:41.220Z,42.91
2017-01-11T09:08:41.201Z,39.59
2017-01-11T09:09:41.578Z,38.35
2017-01-11T09:10:41.159Z,39.87
2017-01-11T09:11:41.150Z,42.15
2017-01-11T09:12:41.127Z,46.23
2017-01-11T09:13:41.101Z,46.04
2017-01-11T09:14:41.082Z,46.61
2017-01-11T09:15:41.067Z,44.53
2017-01-11T09:16:41.043Z,42.24
2017-01-11T09:17:41.022Z,41.49
2017-01-11T09:18:41.003Z,44.14
2017-01-11T09:19:40.981Z,42.15
2017-01-11T09:20:40.961Z,42.53
2017-01-11T09:21:40.941Z,39.11
2017-01-11T09:22:40.923Z,38.82
2017-01-11T09:23:40.909Z,39.4
2017-01-11T09:24:40.901Z,38.26
2017-01-11T09:25:40.866Z,35.5
2017-01-11T09:26:40.846Z,36.07
2017-01-11T09:27:41.224Z,32.46
2017-01-11T09:28:40.805Z,29.98
2017-01-11T09:29:40.787Z,30.65
2017-01-11T09:30:40.767Z,28.18
2017-01-11T09:31:40.742Z,26.76
2017-01-11T09:32:40.728Z,26.18
2017-01-11T09:33:40.707Z,24.38
2017-01-11T09:34:40.684Z,23.05
2017-01-11T09:35:40.665Z,24.1
2017-01-11T09:36:40.644Z,22.3
2017-01-11T09:37:40.624Z,20.4
2017-01-11T09:38:40.604Z,20.68
2017-01-11T09:39:40.584Z,20.31
2017-01-11T09:40:40.565Z,23.24
2017-01-11T09:41:40.544Z,22.2
2017-01-11T09:42:40.523Z,19.73
2017-01-11T09:43:40.501Z,20.21
2017-01-11T09:44:40.482Z,19.07
2017-01-11T09:45:40.464Z,16.13
2017-01-11T09:46:40.445Z,15.37
2017-01-11T09:47:40.424Z,13.57
2017-01-11T09:48:40.428Z,13.09
2017-01-11T09:49:40.387Z,12.71
2017-01-11T09:50:40.364Z,12.34
2017-01-11T09:51:40.344Z,11.48
2017-01-11T09:52:40.325Z,11
2017-01-11T09:53:40.305Z,10.15
2017-01-11T09:54:40.288Z,9.39
2017-01-11T09:55:40.266Z,9.01
2017-01-11T09:56:40.247Z,7.87
2017-01-11T09:57:40.224Z,7.59
2017-01-11T09:58:40.207Z,7.31
2017-01-11T09:59:40.185Z,5.31
2017-01-11T10:00:40.168Z,4.93
2017-01-11T10:01:40.148Z,3.41
2017-01-11T10:02:40.125Z,2.28
2017-01-11T10:03:40.105Z,0.95
2017-01-11T10:04:40.084Z,0.66
2017-01-11T10:05:40.068Z,0
2017-01-11T10:06:40.045Z,0
2017-01-11T10:07:40.025Z,0
2017-01-11T10:08:40.037Z,0
2017-01-11T10:09:39.984Z,0
2017-01-11T10:10:39.965Z,0
2017-01-11T10:11:39.943Z,0
2017-01-11T10:12:39.925Z,0
2017-01-11T10:13:39.905Z,0
2017-01-11T10:14:39.883Z,0
2017-01-11T10:15:39.866Z,0
2017-01-11T10:16:39.847Z,0
2017-01-11T10:17:39.825Z,0
2017-01-11T10:18:39.804Z,0
2017-01-11T10:19:39.796Z,0
2017-01-11T10:20:39.764Z,0
2017-01-11T10:21:39.745Z,0
2017-01-11T10:22:39.726Z,0
2017-01-11T10:23:39.717Z,0
2017-01-11T10:24:39.684Z,0
2017-01-11T10:25:39.667Z,0
2017-01-11T10:26:39.643Z,0
2017-01-11T10:27:39.625Z,0
2017-01-11T10:28:39.607Z,0
2017-01-11T10:29:39.581Z,0
2017-01-11T10:30:39.563Z,0
2017-01-11T10:31:39.544Z,0
2017-01-11T10:32:39.525Z,0
2017-01-11T10:33:39.502Z,0
2017-01-11T10:34:39.484Z,0
2017-01-11T10:35:39.461Z,0
2017-01-11T10:36:39.442Z,0
2017-01-11T10:37:39.423Z,0
2017-01-11T10:38:39.400Z,0
2017-01-11T10:39:39.381Z,0
2017-01-11T10:40:39.362Z,0
2017-01-11T10:41:39.343Z,0
2017-01-11T10:42:39.334Z,0
2017-01-11T10:43:39.300Z,0
2017-01-11T10:44:39.281Z,0
2017-01-11T10:45:39.262Z,0
2017-01-11T10:46:39.238Z,0
2017-01-11T10:47:39.223Z,0
2017-01-11T10:48:39.200Z,0
2017-01-11T10:49:39.181Z,0
2017-01-11T10:50:39.161Z,0
2017-01-11T10:51:39.144Z,0
2017-01-11T10:52:39.121Z,0
2017-01-11T10:53:39.099Z,0
2017-01-11T10:54:39.079Z,0
2017-01-11T10:55:39.062Z,0
2017-01-11T10:56:39.042Z,0
2017-01-11T10:57:39.022Z,0
2017-01-11T10:58:38.998Z,0
2017-01-11T10:59:38.981Z,0
2017-01-11T11:00:39.161Z,0
2017-01-11T11:01:38.937Z,0
2017-01-11T11:02:38.975Z,0
2017-01-11T11:03:38.905Z,0
2017-01-11T11:04:38.884Z,0
2017-01-11T11:05:38.862Z,0
2017-01-11T11:06:38.836Z,0
2017-01-11T11:07:38.819Z,0
2017-01-11T11:08:38.800Z,0
2017-01-11T11:09:38.775Z,0
2017-01-11T11:10:38.758Z,0
2017-01-11T11:11:38.737Z,0
2017-01-11T11:12:38.723Z,0
2017-01-11T11:13:38.699Z,0
2017-01-11T11:14:38.677Z,0
2017-01-11T11:15:38.663Z,0
2017-01-11T11:16:38.644Z,0
2017-01-11T11:17:38.622Z,0
2017-01-11T11:18:38.596Z,0
2017-01-11T11:19:38.579Z,0
2017-01-11T11:20:38.559Z,0
2017-01-11T11:21:38.540Z,0
2017-01-11T11:22:38.914Z,0
2017-01-11T11:23:38.499Z,0
2017-01-11T11:24:38.477Z,0
2017-01-11T11:25:38.463Z,0
2017-01-11T11:26:38.438Z,0
2017-01-11T11:27:38.416Z,0
2017-01-11T11:28:38.407Z,0
2017-01-11T11:29:38.381Z,0
2017-01-11T11:30:38.360Z,0
2017-01-11T11:31:38.339Z,0
2017-01-11T11:32:38.325Z,0
2017-01-11T11:33:38.302Z,0
2017-01-11T11:34:38.281Z,0
2017-01-11T11:35:38.259Z,0
2017-01-11T11:36:38.243Z,0
2017-01-11T11:37:38.222Z,0
2017-01-11T11:38:38.205Z,0
2017-01-11T11:39:38.230Z,0
2017-01-11T11:40:38.164Z,0
2017-01-11T11:41:38.141Z,0
2017-01-11T11:42:38.124Z,0
2017-01-11T11:43:38.103Z,0
2017-01-11T11:44:38.082Z,0
2017-01-11T11:45:38.061Z,0
2017-01-11T11:46:38.041Z,0
2017-01-11T11:47:38.024Z,0
2017-01-11T11:48:38.001Z,0
2017-01-11T11:49:37.983Z,0
2017-01-11T11:50:37.971Z,0
2017-01-11T11:51:37.944Z,0
2017-01-11T11:52:37.927Z,0
2017-01-11T11:53:38.305Z,0
2017-01-11T11:54:37.888Z,0
2017-01-11T11:55:37.868Z,0
2017-01-11T11:56:37.856Z,0
2017-01-11T11:57:37.829Z,0
2017-01-11T11:58:37.808Z,0
2017-01-11T11:59:37.786Z,0
2017-01-11T12:00:37.770Z,0
2017-01-11T12:01:37.748Z,0
2017-01-11T12:02:37.728Z,0
2017-01-11T12:03:37.719Z,0
2017-01-11T12:04:37.701Z,0
2017-01-11T12:05:37.670Z,0
2017-01-11T12:06:37.652Z,0
2017-01-11T12:07:37.634Z,0
2017-01-11T12:08:37.614Z,0
2017-01-11T12:09:37.598Z,0
2017-01-11T12:10:37.575Z,0
2017-01-11T12:11:37.554Z,0
2017-01-11T12:12:37.535Z,0
2017-01-11T12:13:37.540Z,0
2017-01-11T12:14:37.497Z,0
2017-01-11T12:15:37.495Z,0
2017-01-11T12:16:37.458Z,0
2017-01-11T12:17:37.440Z,0
2017-01-11T12:18:37.418Z,0
2017-01-11T12:19:37.400Z,0
2017-01-11T12:20:37.385Z,0
2017-01-11T12:21:37.371Z,0
2017-01-11T12:22:37.347Z,0
2017-01-11T12:23:37.327Z,0
2017-01-11T12:24:37.304Z,0
2017-01-11T12:25:37.287Z,0
2017-01-11T12:26:37.281Z,0
2017-01-11T12:27:37.247Z,0
2017-01-11T12:28:37.228Z,0
2017-01-11T12:29:37.215Z,0
2017-01-11T12:30:37.193Z,0
2017-01-11T12:31:37.172Z,0
2017-01-11T12:32:37.152Z,0
2017-01-11T12:33:37.131Z,0
2017-01-11T12:34:37.114Z,0
2017-01-11T12:35:37.093Z,0
2017-01-11T12:36:37.075Z,0
2017-01-11T12:37:37.061Z,0
2017-01-11T12:38:37.037Z,0
2017-01-11T12:39:37.026Z,0
2017-01-11T12:40:36.996Z,0
2017-01-11T12:41:36.982Z,0
2017-01-11T12:42:36.966Z,0
2017-01-11T12:43:36.943Z,0
2017-01-11T12:44:36.956Z,0
2017-01-11T12:45:36.910Z,0
2017-01-11T12:46:36.886Z,0
2017-01-11T12:47:36.868Z,0
2017-01-11T12:48:36.855Z,0
2017-01-11T12:49:36.832Z,0
2017-01-11T12:50:36.813Z,0
2017-01-11T12:51:36.791Z,0
2017-01-11T12:52:36.781Z,0
2017-01-11T12:53:36.768Z,0
2017-01-11T12:54:36.735Z,0
2017-01-11T12:55:36.723Z,0
2017-01-11T12:56:36.699Z,0
2017-01-11T12:57:36.687Z,0
2017-01-11T12:58:36.664Z,0
2017-01-11T12:59:36.644Z,0
2017-01-11T13:00:36.832Z,0
2017-01-11T13:01:36.609Z,0
2017-01-11T13:02:36.588Z,0
2017-01-11T13:03:36.571Z,0
2017-01-11T13:04:36.551Z,0
2017-01-11T13:05:36.537Z,0
2017-01-11T13:06:36.518Z,0
2017-01-11T13:07:36.502Z,0
2017-01-11T13:08:36.489Z,0
2017-01-11T13:09:36.462Z,0
2017-01-11T13:10:36.444Z,0
2017-01-11T13:11:36.429Z,0
2017-01-11T13:12:36.416Z,0
2017-01-11T13:13:36.398Z,0
2017-01-11T13:14:36.379Z,0
2017-01-11T13:15:36.364Z,0
2017-01-11T13:16:36.349Z,0
2017-01-11T13:17:36.339Z,0
2017-01-11T13:18:36.319Z,0
2017-01-11T13:19:36.700Z,0
2017-01-11T13:20:36.287Z,0
2017-01-11T13:21:36.268Z,0